Hovedside
METAR-TAF:

METAR-TAF

Lufthavner :

Woodvale, England

breddegrad: 53-34-54N, lengdegrad: 003-03-20W, høyde over havet: 11 m

Gjeldene værobservasjon

Denne rapporten ble laget for 29 minutter siden, klokken 12:50 UTC
Vind 6 kt fra Sørvest
Temperatur 20°C
Luftfuktighet 64%
Trykk 1019 hPa
Sikt 10 km eller mer
Få skyer i en høyde av 3000 ft

METAR: EGOW 181250Z 23006KT 9999 FEW030 20/13 Q1019 RMK BLU

Tid: 14:19 (13:19 UTC)

Varsel

Denne rapporten ble laget for 2 timer og 32 minutter siden, klokken 10:47 UTC
Varsel gyldig fra 18. klokken 12 UTC til 18. klokken 18 UTC
Vind 8 kt fra Sør-sørvest
Sikt 10 km eller mer
Få skyer i en høyde av 3000 ft

TAF: EGOW 181047Z 1812/1818 20008KT 9999 FEW030

Værobservasjoner og værvarsel for over 4000 flyplasser (METAR- og TAF-rapporter).

Tilgjengelige stasjoner er representert av de røde og gule prikkene på kartet.

Hold musepekeren over prikken for å se navnet på stasjonen.

Klikk så for å se værobservasjoner og -varsler.

For å forandre kartet kan du klikke på den grønne knappen med svart kryss for å zoome inn, på den grønne knappen med strek for å zoome ut, eller på de grønne pilene for å se tilstøtende kart.


METAR-TAF: